Time;durP1;ratioP1;P1;durP2;ratioP2;P2;SDS_P1;SDS_P2;PMS_P1;PMS_P2;Temp;Humidity;BMP_temperature;BMP_pressure;BME280_temperature;BME280_humidity;BME280_pressure;Samples;Min_cycle;Max_cycle;Signal;HPM_P1;HPM_P2
2021/09/20 00:00:13;;;;;;;3.15;2.17;;;;;;;23.69;47.24;100297.70;1733888;80;21193;-47
2021/09/20 00:02:41;;;;;;;3.15;2.10;;;;;;;23.70;47.22;100310.44;1750709;80;21098;-48
2021/09/20 00:05:09;;;;;;;3.87;2.22;;;;;;;23.69;47.20;100318.53;1756217;80;21067;-45
2021/09/20 00:07:38;;;;;;;3.83;2.33;;;;;;;23.67;47.19;100311.15;1743606;80;21126;-45
2021/09/20 00:10:06;;;;;;;3.05;2.08;;;;;;;23.67;47.17;100312.54;1749397;80;21076;-48
2021/09/20 00:12:32;;;;;;;4.28;2.20;;;;;;;23.66;47.19;100316.47;1747248;80;21132;-47
2021/09/20 00:14:58;;;;;;;4.10;2.47;;;;;;;23.65;47.15;100310.10;1746104;80;21457;-47
2021/09/20 00:17:24;;;;;;;3.52;2.17;;;;;;;23.65;47.13;100307.91;1744443;80;20950;-50
2021/09/20 00:19:50;;;;;;;3.55;2.15;;;;;;;23.64;47.15;100302.11;1734414;80;21003;-48
2021/09/20 00:22:16;;;;;;;3.95;2.25;;;;;;;23.62;47.14;100296.11;1740725;80;21082;-46
2021/09/20 00:24:42;;;;;;;2.98;2.10;;;;;;;23.61;47.11;100298.08;1743323;80;22144;-49
2021/09/20 00:27:10;;;;;;;4.00;2.33;;;;;;;23.61;47.11;100297.27;1751922;80;21059;-48
2021/09/20 00:29:36;;;;;;;3.77;2.17;;;;;;;23.60;47.10;100299.80;1752047;80;20974;-49
2021/09/20 00:32:04;;;;;;;3.77;1.87;;;;;;;23.59;47.10;100312.88;1746786;80;20973;-47
2021/09/20 00:34:30;;;;;;;3.33;2.12;;;;;;;23.58;47.11;100302.14;1750861;80;21480;-46
2021/09/20 00:36:56;;;;;;;3.47;2.20;;;;;;;23.57;47.11;100304.67;1705557;82;21418;-48
2021/09/20 00:39:22;;;;;;;4.92;2.25;;;;;;;23.56;47.11;100302.48;1713256;82;20998;-50
2021/09/20 00:41:48;;;;;;;3.55;2.20;;;;;;;23.56;47.11;100302.48;1715206;82;21096;-49
2021/09/20 00:44:14;;;;;;;3.15;2.08;;;;;;;23.54;47.09;100299.83;1709456;82;21544;-47
2021/09/20 00:46:40;;;;;;;3.55;2.42;;;;;;;23.54;47.12;100306.20;1738426;80;21054;-51
2021/09/20 00:49:06;;;;;;;3.85;2.55;;;;;;;23.54;47.12;100299.26;1747071;80;21084;-45
2021/09/20 00:51:32;;;;;;;4.15;2.30;;;;;;;23.54;47.13;100312.33;1747471;80;21656;-50
2021/09/20 00:53:58;;;;;;;5.37;2.30;;;;;;;23.55;47.17;100320.89;1749096;80;21121;-51
2021/09/20 00:56:25;;;;;;;3.83;2.25;;;;;;;23.55;47.18;100324.45;1749877;80;21474;-47
2021/09/20 00:58:51;;;;;;;3.35;2.40;;;;;;;23.54;47.17;100324.25;1725913;81;21037;-50
2021/09/20 01:01:17;;;;;;;2.65;2.17;;;;;;;23.54;47.17;100323.44;1747932;80;21118;-47
2021/09/20 01:03:43;;;;;;;2.27;1.90;;;;;;;23.54;47.17;100318.69;1742858;81;21067;-45
2021/09/20 01:06:09;;;;;;;2.80;2.10;;;;;;;23.54;47.18;100320.08;1749638;80;21491;-47
2021/09/20 01:08:35;;;;;;;4.85;2.30;;;;;;;23.53;47.14;100318.45;1757616;80;21005;-49
2021/09/20 01:11:01;;;;;;;2.98;2.12;;;;;;;23.53;47.13;100317.64;1724925;81;21043;-45
2021/09/20 01:13:27;;;;;;;3.55;2.30;;;;;;;23.52;47.12;100317.41;1727646;80;21473;-48
2021/09/20 01:15:53;;;;;;;3.65;2.42;;;;;;;23.51;47.09;100327.70;1749791;80;20857;-52
2021/09/20 01:18:20;;;;;;;3.20;2.27;;;;;;;23.51;47.12;100331.86;1753922;80;21018;-48
2021/09/20 01:20:46;;;;;;;3.00;2.10;;;;;;;23.51;47.12;100330.48;1750623;80;21007;-49
2021/09/20 01:23:12;;;;;;;2.95;2.17;;;;;;;23.51;47.09;100326.31;1715239;82;21071;-47
2021/09/20 01:25:38;;;;;;;2.77;1.87;;;;;;;23.49;47.08;100323.09;1693213;83;21609;-45
2021/09/20 01:28:05;;;;;;;4.33;2.55;;;;;;;23.48;47.07;100322.85;1706534;81;21160;-48
2021/09/20 01:30:31;;;;;;;2.40;1.80;;;;;;;23.47;47.03;100336.50;1709978;82;21615;-47
2021/09/20 01:32:57;;;;;;;3.58;2.00;;;;;;;23.47;47.03;100339.27;1759077;80;21860;-47
2021/09/20 01:35:24;;;;;;;2.35;1.75;;;;;;;23.45;47.05;100340.22;1755110;80;21022;-45
2021/09/20 01:37:50;;;;;;;5.10;1.90;;;;;;;23.45;47.03;100336.63;1669597;83;23253;-50
2021/09/20 01:40:16;;;;;;;2.65;2.10;;;;;;;23.45;47.04;100346.34;1686333;82;21064;-46
2021/09/20 01:42:43;;;;;;;6.05;2.05;;;;;;;23.43;47.06;100337.51;1753857;80;21589;-49
2021/09/20 01:45:11;;;;;;;2.75;2.10;;;;;;;23.43;47.08;100338.35;1756412;80;21013;-47
2021/09/20 01:47:37;;;;;;;3.70;2.22;;;;;;;23.42;47.06;100340.89;1741028;80;21180;-49
2021/09/20 01:50:05;;;;;;;4.55;2.22;;;;;;;23.42;47.07;100338.69;1707698;82;20949;-49
2021/09/20 01:52:31;;;;;;;2.30;1.87;;;;;;;23.40;47.07;100335.44;1739450;80;21084;-47
2021/09/20 01:54:57;;;;;;;4.03;2.58;;;;;;;23.39;47.09;100340.17;1725510;81;21046;-49
2021/09/20 01:57:23;;;;;;;2.60;1.80;;;;;;;23.37;47.10;100342.50;1697906;82;21942;-48
2021/09/20 01:59:51;;;;;;;2.98;2.10;;;;;;;23.36;47.11;100340.88;1715475;82;21076;-47
2021/09/20 02:02:17;;;;;;;2.85;1.98;;;;;;;23.35;47.11;100342.03;1711393;82;21814;-46
2021/09/20 02:04:43;;;;;;;2.98;1.90;;;;;;;23.34;47.13;100339.02;1710012;82;21039;-46
2021/09/20 02:07:09;;;;;;;3.22;1.92;;;;;;;23.33;47.12;100333.25;1708628;82;21544;-46
2021/09/20 02:09:35;;;;;;;4.62;2.20;;;;;;;23.30;47.09;100336.70;1668614;83;21117;-49
2021/09/20 02:12:02;;;;;;;2.77;1.90;;;;;;;23.29;47.15;100346.20;1708020;82;21233;-46
2021/09/20 02:14:28;;;;;;;1.90;1.70;;;;;;;23.27;47.13;100341.56;1711449;82;22123;-48
2021/09/20 02:16:54;;;;;;;2.08;1.82;;;;;;;23.27;47.15;100332.43;1706899;82;21018;-51
2021/09/20 02:19:20;;;;;;;2.92;1.90;;;;;;;23.27;47.18;100332.43;1707455;82;21436;-46
2021/09/20 02:21:47;;;;;;;2.47;1.90;;;;;;;23.26;47.18;100338.55;1706942;82;20973;-47
2021/09/20 02:24:13;;;;;;;3.85;1.85;;;;;;;23.23;47.18;100335.91;1707516;82;21069;-47
2021/09/20 02:26:39;;;;;;;3.02;1.77;;;;;;;23.23;47.17;100333.70;1707968;82;21637;-46
2021/09/20 02:29:05;;;;;;;3.08;2.17;;;;;;;23.21;47.18;100329.09;1715511;82;21041;-49
2021/09/20 02:31:31;;;;;;;2.72;2.05;;;;;;;23.19;47.17;100325.84;1711792;82;20995;-46
2021/09/20 02:33:57;;;;;;;1.95;1.75;;;;;;;23.18;47.17;100331.97;1708495;82;21069;-46
2021/09/20 02:36:23;;;;;;;3.35;1.98;;;;;;;23.17;47.17;100327.56;1708360;82;21603;-46
2021/09/20 02:38:49;;;;;;;3.52;1.98;;;;;;;23.16;47.20;100320.42;1710428;82;22005;-48
2021/09/20 02:41:16;;;;;;;2.75;1.92;;;;;;;23.16;47.20;100327.93;1712458;82;20982;-46
2021/09/20 02:43:42;;;;;;;3.40;2.00;;;;;;;23.14;47.19;100332.43;1705270;82;21197;-48
2021/09/20 02:46:08;;;;;;;2.67;1.85;;;;;;;23.14;47.18;100331.61;1707904;82;21002;-47
2021/09/20 02:48:34;;;;;;;2.05;1.85;;;;;;;23.12;47.16;100329.20;1704840;82;21026;-48
2021/09/20 02:51:00;;;;;;;2.40;1.80;;;;;;;23.12;47.14;100327.81;1706329;82;21279;-48
2021/09/20 02:53:27;;;;;;;2.10;1.65;;;;;;;23.11;47.14;100321.22;1707216;82;20982;-45
2021/09/20 02:55:53;;;;;;;2.60;1.70;;;;;;;23.09;47.14;100329.88;1747529;80;21087;-48
2021/09/20 02:58:19;;;;;;;2.17;1.70;;;;;;;23.08;47.16;100335.22;1771302;80;20974;-49
2021/09/20 03:00:45;;;;;;;1.98;1.60;;;;;;;23.08;47.19;100336.61;1762490;80;21054;-50
2021/09/20 03:03:11;;;;;;;2.60;1.87;;;;;;;23.09;47.21;100338.77;1764760;80;21239;-47
2021/09/20 03:05:37;;;;;;;2.58;1.80;;;;;;;23.09;47.19;100345.71;1765084;80;21653;-48
2021/09/20 03:08:04;;;;;;;1.70;1.60;;;;;;;23.06;47.18;100345.84;1769332;80;20983;-49
2021/09/20 03:10:31;;;;;;;2.95;1.82;;;;;;;23.05;47.20;100345.59;1772220;80;21124;-49
2021/09/20 03:12:57;;;;;;;2.47;1.87;;;;;;;23.04;47.18;100343.97;1766871;79;21035;-49
2021/09/20 03:15:24;;;;;;;3.58;1.95;;;;;;;23.03;47.18;100344.33;1767264;80;21538;-47
2021/09/20 03:17:50;;;;;;;4.28;1.90;;;;;;;23.02;47.17;100352.42;1764339;80;21017;-49
2021/09/20 03:20:17;;;;;;;2.45;1.70;;;;;;;23.00;47.19;100349.20;1767518;79;21525;-49
2021/09/20 03:22:43;;;;;;;2.83;1.80;;;;;;;23.00;47.17;100355.52;1764804;80;21007;-49
2021/09/20 03:25:10;;;;;;;2.87;1.72;;;;;;;22.98;47.16;100357.03;1766229;79;21006;-47
2021/09/20 03:27:36;;;;;;;4.15;1.77;;;;;;;22.96;47.13;100364.30;1765201;80;21075;-47
2021/09/20 03:30:04;;;;;;;4.37;2.20;;;;;;;22.95;47.11;100362.71;1771292;80;21058;-49
2021/09/20 03:32:30;;;;;;;2.00;1.60;;;;;;;22.93;47.11;100362.23;1769603;79;21168;-46
2021/09/20 03:34:56;;;;;;;2.22;1.80;;;;;;;22.92;47.10;100357.02;1769175;80;20888;-48
2021/09/20 03:37:22;;;;;;;3.85;2.35;;;;;;;22.91;47.10;100362.35;1766444;80;21059;-48
2021/09/20 03:39:48;;;;;;;2.65;1.90;;;;;;;22.90;47.07;100371.82;1770687;80;21605;-47
2021/09/20 03:42:14;;;;;;;3.55;2.00;;;;;;;22.88;47.05;100372.72;1764663;80;20895;-48
2021/09/20 03:44:40;;;;;;;2.72;1.60;;;;;;;22.87;47.05;100376.10;1764790;80;21047;-44
2021/09/20 03:47:07;;;;;;;2.27;1.80;;;;;;;22.87;47.04;100366.97;1762292;80;21482;-46
2021/09/20 03:49:33;;;;;;;3.22;1.70;;;;;;;22.86;47.00;100361.18;1763059;80;21158;-47
2021/09/20 03:51:59;;;;;;;3.20;1.98;;;;;;;22.85;46.97;100376.20;1762578;80;21312;-45
2021/09/20 03:54:25;;;;;;;2.25;2.05;;;;;;;22.83;46.96;100378.52;1755839;80;21038;-47
2021/09/20 03:56:51;;;;;;;3.20;2.10;;;;;;;22.83;46.94;100377.13;1730248;81;21496;-45
2021/09/20 03:59:17;;;;;;;2.45;1.75;;;;;;;22.82;47.02;100379.66;1766934;80;20984;-49
2021/09/20 04:01:43;;;;;;;8.78;2.90;;;;;;;22.81;47.12;100367.75;1774219;80;21037;-47
2021/09/20 04:04:09;;;;;;;17.73;7.22;;;;;;;22.82;47.26;100369.95;1774153;80;21894;-49
2021/09/20 04:06:35;;;;;;;13.43;4.83;;;;;;;22.82;47.35;100369.95;1768583;80;20998;-45
2021/09/20 04:09:02;;;;;;;3.62;2.27;;;;;;;22.82;47.50;100359.67;1771499;80;20901;-50
2021/09/20 04:11:29;;;;;;;2.40;1.72;;;;;;;22.83;47.55;100357.11;1770956;80;21194;-48
2021/09/20 04:13:55;;;;;;;57.45;21.20;;;;;;;22.83;47.57;100361.88;1763995;80;21321;-50
2021/09/20 04:16:22;;;;;;;7.20;2.92;;;;;;;22.82;47.59;100367.18;1768017;80;21066;-49
2021/09/20 04:18:48;;;;;;;60.03;24.67;;;;;;;22.81;47.64;100366.94;1764906;80;21062;-51
2021/09/20 04:21:14;;;;;;;21.00;6.90;;;;;;;22.82;47.65;100369.95;1769750;80;20991;-48
2021/09/20 04:23:40;;;;;;;34.40;12.95;;;;;;;22.82;47.66;100376.89;1766219;80;21923;-50
2021/09/20 04:26:07;;;;;;;22.65;5.53;;;;;;;22.81;47.66;100379.42;1762274;80;21058;-47
2021/09/20 04:28:33;;;;;;;7.25;2.33;;;;;;;22.80;47.64;100390.27;1765210;80;21630;-49
2021/09/20 04:30:59;;;;;;;3.27;1.70;;;;;;;22.79;47.61;100399.77;1764994;80;20872;-49
2021/09/20 04:33:25;;;;;;;3.30;1.98;;;;;;;22.79;47.64;100406.70;1751326;80;21016;-50
2021/09/20 04:35:51;;;;;;;3.65;2.20;;;;;;;22.81;47.70;100414.09;1759393;81;21015;-49
2021/09/20 04:38:17;;;;;;;13.48;4.45;;;;;;;22.83;47.73;100409.03;1759169;80;21442;-47
2021/09/20 04:40:43;;;;;;;10.98;4.75;;;;;;;22.84;47.78;100414.78;1734476;80;21254;-53
2021/09/20 04:43:12;;;;;;;19.25;5.35;;;;;;;22.85;47.80;100411.68;1709188;82;21468;-50
2021/09/20 04:45:39;;;;;;;5.22;2.55;;;;;;;22.86;47.80;100409.72;1707683;82;21018;-45
2021/09/20 04:48:12;;;;;;;8.38;2.40;;;;;;;22.86;47.76;100412.50;1703465;82;21057;-46
2021/09/20 04:50:43;;;;;;;9.30;3.10;;;;;;;22.87;47.72;100416.90;1759239;80;21054;-47
2021/09/20 04:53:10;;;;;;;7.05;2.40;;;;;;;22.87;47.72;100433.54;1756361;80;22015;-51
2021/09/20 04:55:36;;;;;;;4.78;2.10;;;;;;;22.87;47.62;100437.13;1744350;80;21053;-48
2021/09/20 04:58:06;;;;;;;5.08;1.85;;;;;;;22.87;47.56;100436.31;1707397;83;21629;-49
2021/09/20 05:00:33;;;;;;;5.20;1.82;;;;;;;22.86;47.48;100442.44;1708226;82;21109;-45
2021/09/20 05:02:59;;;;;;;4.87;2.20;;;;;;;22.85;47.41;100446.35;1707703;82;21512;-47
2021/09/20 05:05:25;;;;;;;3.37;1.85;;;;;;;22.83;47.32;100451.41;1708423;82;21299;-50
2021/09/20 05:07:52;;;;;;;2.92;1.42;;;;;;;22.83;47.26;100450.63;1709959;82;21446;-46
2021/09/20 05:10:18;;;;;;;4.42;1.60;;;;;;;22.83;47.20;100450.03;1708621;82;21148;-46
2021/09/20 05:12:46;;;;;;;3.77;1.65;;;;;;;22.82;47.16;100448.44;1705685;82;21116;-46
2021/09/20 05:15:13;;;;;;;14.03;6.72;;;;;;;22.81;47.13;100450.15;1710970;82;21017;-44
2021/09/20 05:17:39;;;;;;;7.55;2.98;;;;;;;22.80;47.10;100447.13;1720218;82;21303;-44
2021/09/20 05:20:07;;;;;;;34.03;11.43;;;;;;;22.78;47.05;100441.13;1700588;82;21142;-47
2021/09/20 05:22:33;;;;;;;6.83;2.58;;;;;;;22.76;47.06;100428.98;1704902;82;21127;-45
2021/09/20 05:24:59;;;;;;;6.28;2.47;;;;;;;22.75;47.05;100424.00;1705272;82;21357;-49
2021/09/20 05:27:28;;;;;;;6.60;2.40;;;;;;;22.75;47.07;100426.78;1703470;81;20934;-45
2021/09/20 05:29:53;;;;;;;8.10;2.33;;;;;;;22.75;47.11;100430.94;1712762;82;21105;-45
2021/09/20 05:32:19;;;;;;;9.58;3.08;;;;;;;22.74;47.08;100438.23;1707993;82;21442;-44
2021/09/20 05:34:45;;;;;;;7.45;3.20;;;;;;;22.73;47.06;100449.90;1709851;82;20912;-46
2021/09/20 05:37:11;;;;;;;12.40;3.80;;;;;;;22.72;47.00;100446.07;1708991;82;21031;-45
2021/09/20 05:39:37;;;;;;;14.05;4.17;;;;;;;22.71;46.96;100449.41;1714050;82;21067;-45
2021/09/20 05:42:03;;;;;;;16.40;4.25;;;;;;;22.69;46.90;100449.53;1709558;81;21138;-43
2021/09/20 05:44:29;;;;;;;9.48;3.90;;;;;;;22.67;46.86;100452.60;1727360;82;21182;-45
2021/09/20 05:46:55;;;;;;;13.53;4.35;;;;;;;22.65;46.84;100452.14;1722379;82;21452;-44
2021/09/20 05:49:21;;;;;;;10.95;4.58;;;;;;;22.66;46.84;100444.64;1729082;82;21045;-43
2021/09/20 05:51:48;;;;;;;11.57;3.87;;;;;;;22.65;46.79;100443.02;1725553;82;21010;-43
2021/09/20 05:54:14;;;;;;;9.73;3.40;;;;;;;22.67;46.79;100451.22;1726204;82;21987;-44
2021/09/20 05:56:40;;;;;;;10.30;3.75;;;;;;;22.69;46.74;100451.73;1732783;81;20997;-46
2021/09/20 05:59:06;;;;;;;9.90;3.60;;;;;;;22.71;46.74;100448.03;1714906;81;20941;-45
2021/09/20 06:01:32;;;;;;;9.95;3.47;;;;;;;22.72;46.71;100442.72;1747793;81;21057;-44
2021/09/20 06:03:58;;;;;;;9.65;3.98;;;;;;;22.73;46.63;100447.13;1746906;81;21040;-43
2021/09/20 06:06:24;;;;;;;10.20;3.72;;;;;;;22.73;46.61;100446.31;1743960;81;21179;-44
2021/09/20 06:08:50;;;;;;;8.38;2.75;;;;;;;22.74;46.55;100449.33;1731300;81;20910;-45
2021/09/20 06:11:16;;;;;;;7.70;2.90;;;;;;;22.74;46.49;100457.65;1759171;80;21011;-45
2021/09/20 06:13:42;;;;;;;10.40;3.30;;;;;;;22.74;46.43;100448.72;1764150;79;21003;-44
2021/09/20 06:16:08;;;;;;;8.05;2.65;;;;;;;22.75;46.39;100447.58;1757938;80;21055;-48
2021/09/20 06:18:35;;;;;;;10.05;3.00;;;;;;;22.76;46.33;100447.01;1754796;80;23229;-47
2021/09/20 06:21:02;;;;;;;8.20;3.00;;;;;;;22.75;46.31;100443.42;1759841;80;21522;-44
2021/09/20 06:23:28;;;;;;;7.92;2.80;;;;;;;22.76;46.26;100432.56;1717249;82;21103;-45
2021/09/20 06:25:54;;;;;;;8.53;2.80;;;;;;;22.78;46.22;100430.03;1712145;82;21028;-49
2021/09/20 06:28:20;;;;;;;8.48;2.77;;;;;;;22.79;46.16;100427.50;1713079;82;21080;-45
2021/09/20 06:30:46;;;;;;;5.70;2.80;;;;;;;22.78;46.13;100416.98;1713407;83;21710;-46
2021/09/20 06:33:13;;;;;;;8.40;2.50;;;;;;;22.80;46.11;100419.40;1708415;82;21087;-49
2021/09/20 06:35:39;;;;;;;5.78;2.62;;;;;;;22.82;46.08;100429.02;1710658;82;21080;-47
2021/09/20 06:38:05;;;;;;;5.22;2.42;;;;;;;22.80;46.04;100424.38;1710462;82;20957;-47
2021/09/20 06:40:31;;;;;;;5.90;2.17;;;;;;;22.81;46.00;100425.19;1713278;82;21583;-45
2021/09/20 06:42:57;;;;;;;4.60;2.52;;;;;;;22.80;45.96;100424.38;1709638;82;21222;-48
2021/09/20 06:45:24;;;;;;;3.33;2.35;;;;;;;22.80;45.91;100418.83;1702868;81;21479;-46
2021/09/20 06:47:50;;;;;;;5.75;2.45;;;;;;;22.80;45.88;100425.76;1714084;82;21008;-46
2021/09/20 06:50:16;;;;;;;8.28;2.55;;;;;;;22.80;45.87;100426.33;1705314;83;20887;-43
2021/09/20 06:52:42;;;;;;;5.15;2.27;;;;;;;22.81;45.82;100427.96;1707855;82;21519;-45
2021/09/20 06:55:10;;;;;;;5.95;2.33;;;;;;;22.82;45.82;100437.91;1709392;82;23168;-45
2021/09/20 06:57:37;;;;;;;7.17;2.12;;;;;;;22.83;45.80;100433.99;1727689;82;21132;-44
2021/09/20 07:00:06;;;;;;;3.67;2.20;;;;;;;22.83;45.74;100429.83;1715787;82;21116;-44
2021/09/20 07:02:33;;;;;;;4.75;2.02;;;;;;;22.83;45.69;100432.61;1701813;83;21135;-44
2021/09/20 07:04:59;;;;;;;3.37;1.90;;;;;;;22.83;45.66;100427.06;1713913;82;21151;-45
2021/09/20 07:07:25;;;;;;;4.35;1.80;;;;;;;22.83;45.63;100421.51;1725802;82;21322;-43
2021/09/20 07:09:51;;;;;;;3.02;1.72;;;;;;;22.84;45.59;100424.49;1716491;82;21427;-45
2021/09/20 07:12:17;;;;;;;5.05;2.00;;;;;;;22.85;45.58;100431.67;1712099;82;21100;-45
2021/09/20 07:14:43;;;;;;;2.55;1.70;;;;;;;22.85;45.54;100446.35;1728428;82;21105;-45
2021/09/20 07:17:09;;;;;;;4.90;1.70;;;;;;;22.87;45.51;100450.19;1700518;83;21002;-43
2021/09/20 07:19:35;;;;;;;3.50;1.67;;;;;;;22.87;45.49;100450.19;1749426;80;22026;-47
2021/09/20 07:22:02;;;;;;;2.30;1.50;;;;;;;22.88;45.45;100444.84;1744986;80;21061;-44
2021/09/20 07:24:28;;;;;;;4.30;1.67;;;;;;;22.89;45.43;100438.16;1745371;81;21436;-44
2021/09/20 07:26:54;;;;;;;3.87;1.90;;;;;;;22.90;45.42;100438.40;1741901;80;21084;-46
2021/09/20 07:29:20;;;;;;;3.05;1.60;;;;;;;22.91;45.37;100421.99;1741336;80;21561;-45
2021/09/20 07:31:46;;;;;;;3.55;1.50;;;;;;;22.92;45.35;100429.14;1745675;81;21284;-46
2021/09/20 07:34:12;;;;;;;3.42;2.12;;;;;;;22.92;45.35;100431.91;1746317;80;21703;-46
2021/09/20 07:36:38;;;;;;;2.83;1.70;;;;;;;22.93;45.33;100441.30;1756469;81;21054;-48
2021/09/20 07:39:05;;;;;;;2.75;1.50;;;;;;;22.95;45.28;100452.05;1734556;80;20897;-45
2021/09/20 07:41:31;;;;;;;2.30;1.60;;;;;;;22.96;45.27;100456.43;1744058;81;21092;-46
2021/09/20 07:43:57;;;;;;;3.65;1.55;;;;;;;22.97;45.26;100451.13;1751415;80;21290;-46
2021/09/20 07:46:23;;;;;;;2.83;1.65;;;;;;;22.97;45.26;100445.00;1741475;80;21593;-44
2021/09/20 07:48:51;;;;;;;2.25;1.55;;;;;;;22.99;45.25;100455.77;1750015;80;21004;-44
2021/09/20 07:51:17;;;;;;;2.55;1.65;;;;;;;23.00;45.23;100465.12;1750664;80;21059;-46
2021/09/20 07:53:43;;;;;;;2.95;1.60;;;;;;;23.02;45.23;100467.56;1753721;81;21047;-43
2021/09/20 07:56:10;;;;;;;5.03;1.60;;;;;;;23.04;45.21;100456.95;1747139;80;22132;-44
2021/09/20 07:58:36;;;;;;;6.40;2.00;;;;;;;23.06;45.20;100450.46;1757056;80;21044;-47
2021/09/20 08:01:03;;;;;;;3.98;1.80;;;;;;;23.07;45.19;100447.93;1753215;80;21076;-44
2021/09/20 08:03:29;;;;;;;2.60;1.80;;;;;;;23.08;45.17;100448.17;1756204;80;21042;-45
2021/09/20 08:05:55;;;;;;;3.08;1.98;;;;;;;23.09;45.14;100441.44;1753089;80;21144;-46
2021/09/20 08:08:21;;;;;;;2.87;1.60;;;;;;;23.08;45.12;100428.75;1753070;80;21171;-43
2021/09/20 08:10:48;;;;;;;4.78;1.80;;;;;;;23.10;45.12;100419.48;1714566;82;21021;-46
2021/09/20 08:13:15;;;;;;;5.00;1.87;;;;;;;23.10;45.12;100413.36;1711206;82;21069;-46
2021/09/20 08:15:45;;;;;;;2.58;1.40;;;;;;;23.12;45.09;100410.25;1749854;80;21064;-45
2021/09/20 08:18:12;;;;;;;2.17;1.47;;;;;;;23.13;45.08;100411.28;1763684;80;21074;-45
2021/09/20 08:20:40;;;;;;;4.72;1.65;;;;;;;23.13;45.08;100398.79;1697903;83;21200;-44
2021/09/20 08:23:06;;;;;;;2.72;1.60;;;;;;;23.14;45.08;100398.22;1709756;82;21055;-44
2021/09/20 08:25:33;;;;;;;2.95;1.60;;;;;;;23.15;45.06;100397.07;1711756;82;20986;-44
2021/09/20 08:27:59;;;;;;;7.15;1.90;;;;;;;23.15;45.07;100397.07;1722143;82;21101;-46
2021/09/20 08:30:25;;;;;;;2.55;1.42;;;;;;;23.14;45.07;100389.31;1705344;83;21010;-45
2021/09/20 08:32:52;;;;;;;3.15;1.67;;;;;;;23.15;45.09;100391.52;1750805;80;21239;-48
2021/09/20 08:35:19;;;;;;;2.17;1.77;;;;;;;23.15;45.08;100390.13;1754993;80;21052;-46
2021/09/20 08:37:46;;;;;;;3.27;1.72;;;;;;;23.15;45.09;100396.49;1763065;80;21117;-44
2021/09/20 08:40:12;;;;;;;2.20;1.72;;;;;;;23.16;45.12;100407.02;1745945;80;21095;-44
2021/09/20 08:42:39;;;;;;;3.05;1.57;;;;;;;23.16;45.14;100407.84;1764162;80;21082;-45
2021/09/20 08:45:08;;;;;;;2.75;1.70;;;;;;;23.18;45.15;100416.61;1756014;80;21114;-46
2021/09/20 08:47:34;;;;;;;3.33;1.90;;;;;;;23.17;45.15;100417.76;1708871;82;21529;-45
2021/09/20 08:50:00;;;;;;;2.65;1.72;;;;;;;23.18;45.14;100413.02;1709843;82;21037;-44
2021/09/20 08:52:26;;;;;;;5.05;2.30;;;;;;;23.19;45.11;100413.27;1707373;82;21120;-52
2021/09/20 08:54:53;;;;;;;3.20;1.72;;;;;;;23.18;45.12;100407.47;1709925;82;21667;-45
2021/09/20 08:57:19;;;;;;;3.70;1.60;;;;;;;23.19;45.12;100409.10;1710477;82;21626;-45
2021/09/20 08:59:47;;;;;;;2.60;1.85;;;;;;;23.20;45.17;100409.34;1718451;82;21427;-45
2021/09/20 09:02:16;;;;;;;4.25;2.15;;;;;;;23.22;45.18;100404.23;1738361;81;21151;-45
2021/09/20 09:04:43;;;;;;;3.10;2.10;;;;;;;23.22;45.17;100393.14;1724953;81;21103;-44
2021/09/20 09:07:13;;;;;;;3.70;2.00;;;;;;;23.23;45.17;100400.31;1724694;82;21087;-44
2021/09/20 09:09:44;;;;;;;2.67;1.70;;;;;;;23.23;45.21;100392.80;1730774;81;21762;-47
2021/09/20 09:12:14;;;;;;;3.08;1.95;;;;;;;23.24;45.24;100386.67;1739023;81;21572;-46
2021/09/20 09:14:47;;;;;;;2.98;1.80;;;;;;;23.26;45.29;100390.47;1734982;81;21061;-48
2021/09/20 09:17:20;;;;;;;4.05;1.75;;;;;;;23.27;45.29;100390.72;1704741;83;21649;-44
2021/09/20 09:19:51;;;;;;;4.87;1.87;;;;;;;23.28;45.34;100385.41;1693529;83;21054;-46
2021/09/20 09:22:18;;;;;;;3.80;1.80;;;;;;;23.30;45.40;100378.95;1686627;83;21115;-47
2021/09/20 09:24:53;;;;;;;3.52;2.08;;;;;;;23.31;45.45;100380.54;1723453;81;21032;-45
2021/09/20 09:27:22;;;;;;;2.65;1.60;;;;;;;23.32;45.46;100377.43;1722233;82;20986;-46
2021/09/20 09:29:48;;;;;;;2.90;1.77;;;;;;;23.33;45.47;100387.38;1689924;83;21124;-44
2021/09/20 09:32:17;;;;;;;4.17;1.82;;;;;;;23.34;45.49;100376.48;1681903;85;20894;-47
2021/09/20 09:34:56;;;;;;;3.40;2.43;;;;;;;23.35;45.53;100359.26;1685006;83;21511;-44
2021/09/20 09:37:22;;;;;;;2.62;1.80;;;;;;;23.35;45.53;100346.77;1720189;82;21433;-46
2021/09/20 09:39:49;;;;;;;2.95;1.90;;;;;;;23.37;45.56;100357.77;1723958;81;21560;-44
2021/09/20 09:42:29;;;;;;;4.15;2.02;;;;;;;23.38;45.60;100347.48;1730752;82;21124;-43
2021/09/20 09:44:57;;;;;;;2.47;1.80;;;;;;;23.40;45.62;100347.93;1724897;81;20997;-47
2021/09/20 09:47:28;;;;;;;2.62;1.90;;;;;;;23.44;45.64;100347.50;1730289;81;21128;-47
2021/09/20 09:50:13;;;;;;;;;;;;;;;23.45;45.69;100349.94;1725489;81;21017;-45
2021/09/20 09:52:39;;;;;;;2.67;1.92;;;;;;;23.48;45.72;100345.64;1726303;81;20457;-47
2021/09/20 09:55:07;;;;;;;2.62;1.67;;;;;;;23.49;45.75;100350.05;1720721;81;20965;-46
2021/09/20 09:57:33;;;;;;;4.40;1.70;;;;;;;23.50;45.80;100353.88;1761693;80;21116;-51
2021/09/20 10:00:08;;;;;;;3.58;1.85;;;;;;;23.52;45.80;100357.09;1770754;80;21418;-44
2021/09/20 10:02:37;;;;;;;3.62;2.20;;;;;;;23.54;45.82;100355.37;1763974;80;21107;-44
2021/09/20 10:05:07;;;;;;;2.20;1.62;;;;;;;23.56;45.83;100359.41;1761237;79;21130;-45
2021/09/20 10:07:38;;;;;;;3.52;1.80;;;;;;;23.57;45.86;100354.09;1757090;80;20995;-47
2021/09/20 10:10:14;;;;;;;2.37;1.65;;;;;;;23.60;45.90;100354.77;1711941;82;20998;-45
2021/09/20 10:12:43;;;;;;;2.10;1.55;;;;;;;23.61;45.90;100348.06;1707525;82;21093;-45
2021/09/20 10:15:13;;;;;;;2.27;1.52;;;;;;;23.62;45.93;100354.44;1713723;82;21129;-46
2021/09/20 10:17:39;;;;;;;3.35;1.85;;;;;;;23.63;45.96;100347.16;1706020;82;21533;-43
2021/09/20 10:20:09;;;;;;;2.87;1.57;;;;;;;23.64;45.96;100340.41;1711842;82;21129;-49
2021/09/20 10:22:35;;;;;;;2.70;1.98;;;;;;;23.65;45.98;100335.67;1703333;82;21014;-46
2021/09/20 10:25:03;;;;;;;4.72;1.67;;;;;;;23.68;46.01;100336.96;1711506;82;21626;-44
2021/09/20 10:27:29;;;;;;;2.92;1.92;;;;;;;23.68;46.02;100341.33;1713312;82;21534;-47
2021/09/20 10:30:08;;;;;;;3.55;1.95;;;;;;;23.71;46.04;100339.03;1708831;82;21119;-43
2021/09/20 10:32:37;;;;;;;2.47;1.80;;;;;;;23.72;46.03;100333.71;1714110;82;21025;-43
2021/09/20 10:35:41;;;;;;;2.58;2.00;;;;;;;23.73;46.02;100331.14;1712933;81;21076;-46
2021/09/20 10:38:29;;;;;;;4.00;1.70;;;;;;;23.73;46.04;100322.80;1710300;82;21545;-45
2021/09/20 10:41:12;;;;;;;2.72;1.67;;;;;;;23.72;46.00;100315.66;1717846;82;21055;-45
2021/09/20 10:43:41;;;;;;;3.58;2.00;;;;;;;23.72;46.02;100310.88;1761712;81;21046;-46
2021/09/20 10:46:24;;;;;;;3.27;2.10;;;;;;;23.73;46.03;100309.73;1767101;80;21008;-45
2021/09/20 10:48:55;;;;;;;3.65;1.90;;;;;;;23.73;46.05;100304.75;1760253;80;21477;-48
2021/09/20 10:51:29;;;;;;;3.15;2.20;;;;;;;23.74;46.07;100296.08;1759508;80;21453;-49
2021/09/20 10:54:15;;;;;;;2.90;1.80;;;;;;;23.75;46.10;100295.50;1766444;80;21461;-45
2021/09/20 10:56:42;;;;;;;2.30;1.80;;;;;;;23.77;46.11;100284.84;1753054;80;21077;-48
2021/09/20 10:59:13;;;;;;;2.70;1.80;;;;;;;23.77;46.14;100272.34;1744198;80;21049;-47
2021/09/20 11:01:40;;;;;;;2.75;1.55;;;;;;;23.79;46.16;100259.73;1751597;80;21080;-46
2021/09/20 11:04:22;;;;;;;2.10;1.75;;;;;;;23.80;46.18;100260.55;1750372;80;22148;-47
2021/09/20 11:07:10;;;;;;;2.83;1.60;;;;;;;23.83;46.18;100261.22;1744904;80;37597;-48
2021/09/20 11:09:51;;;;;;;3.83;1.80;;;;;;;23.84;46.18;100245.59;1747822;80;22748;-46
2021/09/20 11:12:24;;;;;;;2.22;1.70;;;;;;;23.86;46.19;100241.87;1754397;80;21123;-48
2021/09/20 11:15:13;;;;;;;2.33;1.60;;;;;;;23.88;46.20;100229.84;1748580;81;21047;-47
2021/09/20 11:17:45;;;;;;;4.75;2.15;;;;;;;23.92;46.22;100225.77;1749832;80;21092;-43
2021/09/20 11:20:22;;;;;;;2.72;1.57;;;;;;;23.94;46.22;100222.03;1749694;80;20952;-45
2021/09/20 11:22:48;;;;;;;2.55;1.62;;;;;;;23.97;46.22;100226.91;1707247;82;21160;-45
2021/09/20 11:25:16;;;;;;;2.30;1.50;;;;;;;23.98;46.21;100224.33;1710419;82;21546;-46